Time,TemperatureF,DewpointF,PressureIn,WindDirection,WindDirectionDegrees,WindSpeedMPH,WindSpeedGustMPH,Humidity,HourlyPrecipIn,Conditions,Clouds,dailyrainin,SoftwareType,DateUTC
2013-02-22 00:00:00,32.0,28.6,30.15,ENE,66,0.0,0.0,87,0.00,,---,0.00,VWS V14.01,2013-02-22 08:00:00,
2013-02-22 00:05:00,32.0,28.6,30.15,ENE,65,0.0,0.0,87,0.00,,---,0.00,VWS V14.01,2013-02-22 08:05:00,
2013-02-22 00:10:00,31.9,28.5,30.15,ENE,65,3.0,4.0,87,0.00,,---,0.00,VWS V14.01,2013-02-22 08:10:00,
2013-02-22 00:15:00,31.9,28.5,30.15,ENE,65,0.0,0.0,87,0.00,,---,0.00,VWS V14.01,2013-02-22 08:15:00,
2013-02-22 00:20:00,31.9,28.5,30.15,ENE,66,0.0,0.0,87,0.00,,---,0.00,VWS V14.01,2013-02-22 08:20:00,
2013-02-22 00:25:00,31.9,28.5,30.15,ENE,66,0.0,0.0,87,0.00,,---,0.00,VWS V14.01,2013-02-22 08:25:00,
2013-02-22 00:30:00,31.9,28.5,30.15,ENE,65,0.0,0.0,87,0.00,,---,0.00,VWS V14.01,2013-02-22 08:30:00,
2013-02-22 00:35:00,31.7,28.3,30.14,ENE,60,4.0,5.0,87,0.00,,---,0.00,VWS V14.01,2013-02-22 08:35:00,
2013-02-22 00:40:00,31.8,28.4,30.15,ENE,60,0.0,5.0,87,0.00,,---,0.00,VWS V14.01,2013-02-22 08:40:00,
2013-02-22 00:45:00,31.9,28.5,30.15,ENE,60,0.0,0.0,87,0.00,,---,0.00,VWS V14.01,2013-02-22 08:45:00,
2013-02-22 00:50:00,32.0,28.6,30.15,ENE,60,0.0,0.0,87,0.00,,---,0.00,VWS V14.01,2013-02-22 08:50:00,
2013-02-22 00:55:00,31.7,28.3,30.15,ENE,60,0.0,0.0,87,0.00,,---,0.00,VWS V14.01,2013-02-22 08:55:00,
2013-02-22 01:00:00,31.6,28.5,30.15,ENE,62,0.0,0.0,88,0.00,,---,0.00,VWS V14.01,2013-02-22 09:00:00,
2013-02-22 01:05:00,31.5,28.6,30.16,ENE,62,0.0,0.0,89,0.00,,---,0.00,VWS V14.01,2013-02-22 09:05:00,
2013-02-22 01:10:00,31.4,28.5,30.16,ENE,62,0.0,0.0,89,0.00,,---,0.00,VWS V14.01,2013-02-22 09:10:00,
2013-02-22 01:15:00,31.6,28.7,30.15,ENE,62,0.0,0.0,89,0.00,,---,0.00,VWS V14.01,2013-02-22 09:15:00,
2013-02-22 01:20:00,31.6,28.7,30.15,ENE,62,0.0,0.0,89,0.00,,---,0.00,VWS V14.01,2013-02-22 09:20:00,
2013-02-22 01:25:00,31.7,28.8,30.15,ENE,62,0.0,0.0,89,0.00,,---,0.00,VWS V14.01,2013-02-22 09:25:00,
2013-02-22 01:30:00,31.5,28.4,30.15,ENE,61,0.0,0.0,88,0.00,,---,0.00,VWS V14.01,2013-02-22 09:30:00,
2013-02-22 01:35:00,31.4,28.5,30.15,ENE,61,0.0,0.0,89,0.00,,---,0.00,VWS V14.01,2013-02-22 09:35:00,
2013-02-22 01:40:00,31.5,28.6,30.14,ENE,62,0.0,0.0,89,0.00,,---,0.00,VWS V14.01,2013-02-22 09:40:00,
2013-02-22 01:45:00,31.6,28.7,30.14,ENE,62,0.0,0.0,89,0.00,,---,0.00,VWS V14.01,2013-02-22 09:45:00,
2013-02-22 01:50:00,31.4,28.5,30.14,ENE,62,0.0,0.0,89,0.00,,---,0.00,VWS V14.01,2013-02-22 09:50:00,
2013-02-22 01:55:00,31.1,28.2,30.14,ENE,62,0.0,0.0,89,0.00,,---,0.00,VWS V14.01,2013-02-22 09:55:00,
2013-02-22 02:00:00,30.8,28.0,30.14,ENE,61,0.0,0.0,89,0.00,,---,0.00,VWS V14.01,2013-02-22 10:00:00,
2013-02-22 02:05:00,30.6,27.8,30.14,ENE,61,0.0,0.0,89,0.00,,---,0.00,VWS V14.01,2013-02-22 10:05:00,
2013-02-22 02:10:00,30.6,27.8,30.14,ENE,62,0.0,0.0,89,0.00,,---,0.00,VWS V14.01,2013-02-22 10:10:00,
2013-02-22 02:15:00,30.5,27.6,30.14,ENE,62,0.0,0.0,89,0.00,,---,0.00,VWS V14.01,2013-02-22 10:15:00,
2013-02-22 02:20:00,30.5,27.6,30.14,ENE,62,0.0,0.0,89,0.00,,---,0.00,VWS V14.01,2013-02-22 10:20:00,
2013-02-22 02:25:00,30.5,27.6,30.13,ENE,61,0.0,0.0,89,0.00,,---,0.00,VWS V14.01,2013-02-22 10:25:00,
2013-02-22 02:30:00,30.4,27.5,30.14,ENE,62,0.0,0.0,89,0.00,,---,0.00,VWS V14.01,2013-02-22 10:30:00,
2013-02-22 02:35:00,30.3,27.5,30.13,ENE,62,0.0,3.0,89,0.00,,---,0.00,VWS V14.01,2013-02-22 10:35:00,
2013-02-22 02:40:00,30.2,27.4,30.14,ENE,62,0.0,3.0,89,0.00,,---,0.00,VWS V14.01,2013-02-22 10:40:00,
2013-02-22 02:45:00,30.1,27.3,30.14,ENE,62,0.0,3.0,89,0.00,,---,0.00,VWS V14.01,2013-02-22 10:45:00,
2013-02-22 02:50:00,29.8,27.0,30.14,ENE,61,0.0,0.0,89,0.00,,---,0.00,VWS V14.01,2013-02-22 10:50:00,
2013-02-22 02:55:00,29.6,26.8,30.13,ENE,62,0.0,0.0,89,0.00,,---,0.00,VWS V14.01,2013-02-22 10:55:00,
2013-02-22 03:00:00,29.4,26.6,30.13,ENE,62,0.0,0.0,89,0.00,,---,0.00,VWS V14.01,2013-02-22 11:00:00,
2013-02-22 03:05:00,29.2,26.6,30.13,ENE,61,0.0,0.0,90,0.00,,---,0.00,VWS V14.01,2013-02-22 11:05:00,
2013-02-22 03:10:00,29.2,26.6,30.13,ENE,61,0.0,0.0,90,0.00,,---,0.00,VWS V14.01,2013-02-22 11:10:00,
2013-02-22 03:15:00,29.3,26.7,30.13,ENE,61,0.0,0.0,90,0.00,,---,0.00,VWS V14.01,2013-02-22 11:15:00,
2013-02-22 03:20:00,29.2,26.6,30.13,ENE,62,0.0,0.0,90,0.00,,---,0.00,VWS V14.01,2013-02-22 11:20:00,
2013-02-22 03:25:00,29.3,26.7,30.13,ENE,62,0.0,3.0,90,0.00,,---,0.00,VWS V14.01,2013-02-22 11:25:00,
2013-02-22 03:30:00,29.4,26.8,30.13,ENE,62,0.0,3.0,90,0.00,,---,0.00,VWS V14.01,2013-02-22 11:30:00,
2013-02-22 03:35:00,30.0,27.7,30.13,ENE,61,0.0,0.0,91,0.00,,---,0.00,VWS V14.01,2013-02-22 11:35:00,
2013-02-22 03:40:00,30.1,27.3,30.13,ENE,62,0.0,3.0,89,0.00,,---,0.00,VWS V14.01,2013-02-22 11:40:00,
2013-02-22 03:45:00,30.0,27.2,30.12,ENE,62,0.0,3.0,89,0.00,,---,0.00,VWS V14.01,2013-02-22 11:45:00,
2013-02-22 03:50:00,30.0,27.2,30.12,ENE,62,0.0,0.0,89,0.00,,---,0.00,VWS V14.01,2013-02-22 11:50:00,
2013-02-22 03:55:00,30.4,27.3,30.12,ENE,62,2.0,3.0,88,0.00,,---,0.00,VWS V14.01,2013-02-22 11:55:00,
2013-02-22 04:00:00,30.5,27.1,30.12,ENE,62,3.0,3.0,87,0.00,,---,0.00,VWS V14.01,2013-02-22 12:00:00,
2013-02-22 04:05:00,30.6,27.2,30.12,ENE,62,3.0,5.0,87,0.00,,---,0.00,VWS V14.01,2013-02-22 12:05:00,
2013-02-22 04:10:00,30.5,27.1,30.12,ENE,61,1.0,5.0,87,0.00,,---,0.00,VWS V14.01,2013-02-22 12:10:00,
2013-02-22 04:15:00,30.3,26.9,30.12,ENE,61,0.0,5.0,87,0.00,,---,0.00,VWS V14.01,2013-02-22 12:15:00,
2013-02-22 04:20:00,30.1,27.0,30.11,ENE,62,3.0,4.0,88,0.00,,---,0.00,VWS V14.01,2013-02-22 12:20:00,
2013-02-22 04:25:00,29.8,26.7,30.12,ENE,63,0.0,4.0,88,0.00,,---,0.00,VWS V14.01,2013-02-22 12:25:00,
2013-02-22 04:30:00,29.7,26.6,30.12,ENE,63,0.0,4.0,88,0.00,,---,0.00,VWS V14.01,2013-02-22 12:30:00,
2013-02-22 04:35:00,29.7,26.6,30.12,ENE,63,0.0,0.0,88,0.00,,---,0.00,VWS V14.01,2013-02-22 12:35:00,
2013-02-22 04:40:00,29.8,26.7,30.12,ENE,63,0.0,0.0,88,0.00,,---,0.00,VWS V14.01,2013-02-22 12:40:00,
2013-02-22 04:45:00,29.7,26.6,30.12,ENE,63,0.0,0.0,88,0.00,,---,0.00,VWS V14.01,2013-02-22 12:45:00,
2013-02-22 04:50:00,29.7,26.6,30.12,ENE,63,0.0,0.0,88,0.00,,---,0.00,VWS V14.01,2013-02-22 12:50:00,
2013-02-22 04:55:00,29.6,26.5,30.13,ENE,63,0.0,0.0,88,0.00,,---,0.00,VWS V14.01,2013-02-22 12:55:00,
2013-02-22 05:00:00,29.3,26.2,30.13,ENE,63,0.0,0.0,88,0.00,,---,0.00,VWS V14.01,2013-02-22 13:00:00,
2013-02-22 05:05:00,29.0,25.9,30.13,ENE,63,0.0,0.0,88,0.00,,---,0.00,VWS V14.01,2013-02-22 13:05:00,
2013-02-22 05:10:00,28.7,25.6,30.13,ENE,63,0.0,0.0,88,0.00,,---,0.00,VWS V14.01,2013-02-22 13:10:00,
2013-02-22 05:15:00,28.8,26.0,30.13,ENE,63,0.0,0.0,89,0.00,,---,0.00,VWS V14.01,2013-02-22 13:15:00,
2013-02-22 05:20:00,29.0,26.2,30.13,ENE,63,0.0,0.0,89,0.00,,---,0.00,VWS V14.01,2013-02-22 13:20:00,
2013-02-22 05:25:00,28.8,26.0,30.12,ENE,63,0.0,0.0,89,0.00,,---,0.00,VWS V14.01,2013-02-22 13:25:00,
2013-02-22 05:30:00,28.8,26.2,30.12,ENE,63,0.0,0.0,90,0.00,,---,0.00,VWS V14.01,2013-02-22 13:30:00,
2013-02-22 05:35:00,28.8,26.0,30.12,ENE,63,0.0,0.0,89,0.00,,---,0.00,VWS V14.01,2013-02-22 13:35:00,
2013-02-22 05:40:00,28.6,25.8,30.13,ENE,63,0.0,0.0,89,0.00,,---,0.00,VWS V14.01,2013-02-22 13:40:00,
2013-02-22 05:44:00,28.9,26.3,30.12,ENE,63,0.0,0.0,90,0.00,,---,0.00,VWS V14.01,2013-02-22 13:44:00,
2013-02-22 05:45:00,29.8,26.7,30.12,North,5,2.0,5.0,88,0.00,,---,0.00,VWS V14.01,2013-02-22 13:45:00,
2013-02-22 05:49:00,29.0,26.2,30.12,ENE,63,0.0,0.0,89,0.00,,---,0.00,VWS V14.01,2013-02-22 13:49:00,
2013-02-22 05:54:00,28.9,26.1,30.12,ENE,63,0.0,0.0,89,0.00,,---,0.00,VWS V14.01,2013-02-22 13:54:00,
2013-02-22 05:59:00,28.9,26.1,30.11,ENE,63,0.0,0.0,89,0.00,,---,0.00,VWS V14.01,2013-02-22 13:59:00,
2013-02-22 06:00:00,30.1,26.7,30.11,NNE,18,0.0,5.0,87,0.00,,---,0.00,VWS V14.01,2013-02-22 14:00:00,
2013-02-22 06:04:00,29.3,26.5,30.11,ENE,63,0.0,3.0,89,0.00,,---,0.00,VWS V14.01,2013-02-22 14:04:00,
2013-02-22 06:09:00,29.6,26.8,30.11,ENE,67,5.0,6.0,89,0.00,,---,0.00,VWS V14.01,2013-02-22 14:09:00,
2013-02-22 06:14:00,29.7,26.6,30.11,ENE,71,5.0,6.0,88,0.00,,---,0.00,VWS V14.01,2013-02-22 14:14:00,
2013-02-22 06:15:00,30.1,26.7,30.11,NNE,18,0.0,0.0,87,0.00,,---,0.00,VWS V14.01,2013-02-22 14:15:00,
2013-02-22 06:19:00,29.7,26.6,30.11,ENE,69,3.0,5.0,88,0.00,,---,0.00,VWS V14.01,2013-02-22 14:19:00,
2013-02-22 06:24:00,29.9,26.8,30.11,ENE,69,0.0,5.0,88,0.00,,---,0.00,VWS V14.01,2013-02-22 14:24:00,
2013-02-22 06:29:00,29.9,26.5,30.12,ENE,69,0.0,5.0,87,0.00,,---,0.00,VWS V14.01,2013-02-22 14:29:00,
2013-02-22 06:30:00,30.1,26.7,30.10,NNE,18,0.0,0.0,87,0.00,,---,0.00,VWS V14.01,2013-02-22 14:30:00,
2013-02-22 06:34:00,29.9,26.8,30.12,ENE,69,0.0,0.0,88,0.00,,---,0.00,VWS V14.01,2013-02-22 14:34:00,
2013-02-22 06:39:00,29.8,26.7,30.12,ENE,68,0.0,0.0,88,0.00,,---,0.00,VWS V14.01,2013-02-22 14:39:00,
2013-02-22 06:44:00,29.8,26.7,30.12,North,5,4.0,5.0,88,0.00,,---,0.00,VWS V14.01,2013-02-22 14:44:00,
2013-02-22 06:45:00,30.1,26.7,30.10,NNE,18,0.0,0.0,87,0.00,,---,0.00,VWS V14.01,2013-02-22 14:45:00,
2013-02-22 06:49:00,30.1,27.0,30.12,NNE,18,3.0,5.0,88,0.00,,---,0.00,VWS V14.01,2013-02-22 14:49:00,
2013-02-22 06:54:00,30.1,26.7,30.11,NNE,19,0.0,5.0,87,0.00,,---,0.00,VWS V14.01,2013-02-22 14:54:00,
2013-02-22 06:59:00,30.1,26.7,30.11,NNE,18,0.0,5.0,87,0.00,,---,0.00,VWS V14.01,2013-02-22 14:59:00,
2013-02-22 07:00:00,31.7,28.6,30.09,NE,51,4.0,5.0,88,0.00,,---,0.00,VWS V14.01,2013-02-22 15:00:00,
2013-02-22 07:04:00,30.1,26.7,30.11,NNE,18,0.0,0.0,87,0.00,,---,0.00,VWS V14.01,2013-02-22 15:04:00,
2013-02-22 07:09:00,30.1,26.7,30.11,NNE,18,0.0,0.0,87,0.00,,---,0.00,VWS V14.01,2013-02-22 15:09:00,
2013-02-22 07:14:00,30.1,26.7,30.11,NNE,18,0.0,0.0,87,0.00,,---,0.00,VWS V14.01,2013-02-22 15:14:00,
2013-02-22 07:15:00,32.8,28.8,30.09,NE,51,6.0,6.0,85,0.00,,---,0.00,VWS V14.01,2013-02-22 15:15:00,
2013-02-22 07:19:00,30.1,26.7,30.11,NNE,18,0.0,0.0,87,0.00,,---,0.00,VWS V14.01,2013-02-22 15:19:00,
2013-02-22 07:24:00,30.1,26.7,30.11,NNE,18,0.0,0.0,87,0.00,,---,0.00,VWS V14.01,2013-02-22 15:24:00,
2013-02-22 07:29:00,30.1,26.7,30.10,NNE,18,0.0,0.0,87,0.00,,---,0.00,VWS V14.01,2013-02-22 15:29:00,
2013-02-22 07:30:00,32.5,28.5,30.09,NE,40,5.0,7.0,85,0.00,,---,0.00,VWS V14.01,2013-02-22 15:30:00,
2013-02-22 07:34:00,30.1,26.7,30.10,NNE,18,0.0,0.0,87,0.00,,---,0.00,VWS V14.01,2013-02-22 15:34:00,
2013-02-22 07:39:00,30.1,26.7,30.10,NNE,18,0.0,0.0,87,0.00,,---,0.00,VWS V14.01,2013-02-22 15:39:00,
2013-02-22 07:44:00,30.1,26.7,30.10,NNE,18,0.0,0.0,87,0.00,,---,0.00,VWS V14.01,2013-02-22 15:44:00,
2013-02-22 07:45:00,33.0,28.7,30.08,NE,41,4.0,8.0,84,0.00,,---,0.00,VWS V14.01,2013-02-22 15:45:00,
2013-02-22 07:49:00,30.1,26.7,30.10,NNE,18,0.0,0.0,87,0.00,,---,0.00,VWS V14.01,2013-02-22 15:49:00,
2013-02-22 07:54:00,30.1,26.7,30.10,NNE,18,0.0,0.0,87,0.00,,---,0.00,VWS V14.01,2013-02-22 15:54:00,
2013-02-22 07:59:00,31.6,28.5,30.09,NE,51,4.0,5.0,88,0.00,,---,0.00,VWS V14.01,2013-02-22 15:59:00,
2013-02-22 08:00:00,34.4,29.2,30.08,NE,34,4.0,7.0,81,0.00,,---,0.00,VWS V14.01,2013-02-22 16:00:00,
2013-02-22 08:04:00,32.1,28.7,30.09,ENE,57,4.0,5.0,87,0.00,,---,0.00,VWS V14.01,2013-02-22 16:04:00,
2013-02-22 08:09:00,32.5,28.5,30.09,NE,54,3.0,5.0,85,0.00,,---,0.00,VWS V14.01,2013-02-22 16:09:00,
2013-02-22 08:14:00,32.7,28.7,30.09,NE,54,5.0,6.0,85,0.00,,---,0.00,VWS V14.01,2013-02-22 16:14:00,
2013-02-22 08:15:00,35.4,29.5,30.07,NE,40,5.0,6.0,79,0.00,,---,0.00,VWS V14.01,2013-02-22 16:15:00,
2013-02-22 08:19:00,32.8,28.5,30.09,NE,42,4.0,6.0,84,0.00,,---,0.00,VWS V14.01,2013-02-22 16:19:00,
2013-02-22 08:24:00,32.6,28.3,30.08,NE,49,5.0,6.0,84,0.00,,---,0.00,VWS V14.01,2013-02-22 16:24:00,
2013-02-22 08:29:00,32.5,28.5,30.09,NE,35,6.0,7.0,85,0.00,,---,0.00,VWS V14.01,2013-02-22 16:29:00,
2013-02-22 08:30:00,36.4,29.9,30.07,ENE,57,4.0,5.0,77,0.00,,---,0.00,VWS V14.01,2013-02-22 16:30:00,
2013-02-22 08:34:00,32.5,28.5,30.08,NE,35,7.0,8.0,85,0.00,,---,0.00,VWS V14.01,2013-02-22 16:34:00,
2013-02-22 08:39:00,32.6,28.6,30.08,NE,39,6.0,8.0,85,0.00,,---,0.00,VWS V14.01,2013-02-22 16:39:00,
2013-02-22 08:44:00,32.9,28.6,30.08,NE,42,6.0,8.0,84,0.00,,---,0.00,VWS V14.01,2013-02-22 16:44:00,
2013-02-22 08:45:00,36.5,30.0,30.07,NE,43,4.0,6.0,77,0.00,,---,0.00,VWS V14.01,2013-02-22 16:45:00,
2013-02-22 08:49:00,33.3,28.7,30.08,NE,37,7.0,7.0,83,0.00,,---,0.00,VWS V14.01,2013-02-22 16:49:00,
2013-02-22 08:54:00,33.8,28.9,30.08,NE,42,3.0,7.0,82,0.00,,---,0.00,VWS V14.01,2013-02-22 16:54:00,
2013-02-22 08:59:00,34.3,29.1,30.08,NNE,33,4.0,7.0,81,0.00,,---,0.00,VWS V14.01,2013-02-22 16:59:00,
2013-02-22 09:00:00,36.9,29.4,30.06,NE,44,4.0,6.0,74,0.00,,---,0.00,VWS V14.01,2013-02-22 17:00:00,
2013-02-22 09:04:00,34.5,29.3,30.07,NE,42,5.0,5.0,81,0.00,,---,0.00,VWS V14.01,2013-02-22 17:04:00,
2013-02-22 09:09:00,34.9,29.4,30.08,NE,38,3.0,6.0,80,0.00,,---,0.00,VWS V14.01,2013-02-22 17:09:00,
2013-02-22 09:14:00,35.3,29.5,30.07,NE,40,4.0,6.0,79,0.00,,---,0.00,VWS V14.01,2013-02-22 17:14:00,
2013-02-22 09:15:00,36.8,30.0,30.06,ENE,57,4.0,6.0,76,0.00,,---,0.00,VWS V14.01,2013-02-22 17:15:00,
2013-02-22 09:19:00,35.7,29.2,30.07,NE,42,4.0,5.0,77,0.00,,---,0.00,VWS V14.01,2013-02-22 17:19:00,
2013-02-22 09:24:00,36.0,29.5,30.07,NE,55,4.0,5.0,77,0.00,,---,0.00,VWS V14.01,2013-02-22 17:24:00,
2013-02-22 09:29:00,36.3,29.8,30.07,NE,55,4.0,5.0,77,0.00,,---,0.00,VWS V14.01,2013-02-22 17:29:00,
2013-02-22 09:30:00,36.7,29.9,30.06,NE,55,2.0,5.0,76,0.00,,---,0.00,VWS V14.01,2013-02-22 17:30:00,
2013-02-22 09:34:00,36.5,29.7,30.07,ENE,59,6.0,6.0,76,0.00,,---,0.00,VWS V14.01,2013-02-22 17:34:00,
2013-02-22 09:39:00,36.4,29.6,30.07,NE,42,4.0,6.0,76,0.00,,---,0.00,VWS V14.01,2013-02-22 17:39:00,
2013-02-22 09:44:00,36.4,29.9,30.07,NE,42,4.0,6.0,77,0.00,,---,0.00,VWS V14.01,2013-02-22 17:44:00,
2013-02-22 09:45:00,36.9,30.4,30.06,NE,55,3.0,4.0,77,0.00,,---,0.00,VWS V14.01,2013-02-22 17:45:00,
2013-02-22 09:49:00,36.5,29.7,30.06,NE,40,6.0,6.0,76,0.00,,---,0.00,VWS V14.01,2013-02-22 17:49:00,
2013-02-22 09:54:00,36.8,29.6,30.06,NE,42,5.0,6.0,75,0.00,,---,0.00,VWS V14.01,2013-02-22 17:54:00,
2013-02-22 09:59:00,36.9,29.4,30.06,NE,46,5.0,6.0,74,0.00,,---,0.00,VWS V14.01,2013-02-22 17:59:00,
2013-02-22 10:00:00,37.5,30.3,30.03,NE,36,8.0,10.0,75,0.00,,---,0.00,VWS V14.01,2013-02-22 18:00:00,
2013-02-22 10:04:00,36.9,29.7,30.06,NE,42,4.0,6.0,75,0.00,,---,0.00,VWS V14.01,2013-02-22 18:04:00,
2013-02-22 10:09:00,36.9,29.4,30.07,NE,49,3.0,6.0,74,0.00,,---,0.00,VWS V14.01,2013-02-22 18:09:00,
2013-02-22 10:14:00,36.8,29.6,30.06,NE,55,4.0,6.0,75,0.00,,---,0.00,VWS V14.01,2013-02-22 18:14:00,
2013-02-22 10:15:00,38.2,30.3,30.03,NE,46,4.0,8.0,73,0.00,,---,0.00,VWS V14.01,2013-02-22 18:15:00,
2013-02-22 10:19:00,36.6,29.8,30.05,NE,55,3.0,5.0,76,0.00,,---,0.00,VWS V14.01,2013-02-22 18:19:00,
2013-02-22 10:24:00,36.6,29.4,30.06,NE,55,3.0,5.0,75,0.00,,---,0.00,VWS V14.01,2013-02-22 18:24:00,
2013-02-22 10:29:00,36.7,29.9,30.06,NE,55,2.0,5.0,76,0.00,,---,0.00,VWS V14.01,2013-02-22 18:29:00,
2013-02-22 10:30:00,38.5,30.3,30.02,NE,52,7.0,8.0,72,0.00,,---,0.00,VWS V14.01,2013-02-22 18:30:00,
2013-02-22 10:34:00,36.8,30.0,30.06,NE,55,0.0,3.0,76,0.00,,---,0.00,VWS V14.01,2013-02-22 18:34:00,
2013-02-22 10:39:00,36.8,30.0,30.06,NE,55,0.0,3.0,76,0.00,,---,0.00,VWS V14.01,2013-02-22 18:39:00,
2013-02-22 10:44:00,36.9,30.4,30.06,NE,55,2.0,3.0,77,0.00,,---,0.00,VWS V14.01,2013-02-22 18:44:00,
2013-02-22 10:45:00,39.1,30.2,30.00,NE,45,10.0,11.0,70,0.00,,---,0.00,VWS V14.01,2013-02-22 18:45:00,
2013-02-22 10:49:00,37.0,30.5,30.05,NE,52,5.0,5.0,77,0.00,,---,0.00,VWS V14.01,2013-02-22 18:49:00,
2013-02-22 10:54:00,37.1,30.6,30.05,NE,48,3.0,7.0,77,0.00,,---,0.00,VWS V14.01,2013-02-22 18:54:00,
2013-02-22 10:59:00,37.4,30.2,30.03,NE,42,8.0,8.0,75,0.00,,---,0.00,VWS V14.01,2013-02-22 18:59:00,
2013-02-22 11:00:00,39.1,30.5,29.99,NE,38,9.0,10.0,71,0.00,,---,0.00,VWS V14.01,2013-02-22 19:00:00,
2013-02-22 11:04:00,37.7,30.2,30.04,NE,45,4.0,8.0,74,0.00,,---,0.00,VWS V14.01,2013-02-22 19:04:00,
2013-02-22 11:09:00,38.0,30.1,30.04,NE,36,7.0,8.0,73,0.00,,---,0.00,VWS V14.01,2013-02-22 19:09:00,
2013-02-22 11:14:00,38.2,30.0,30.03,NE,40,5.0,8.0,72,0.00,,---,0.00,VWS V14.01,2013-02-22 19:14:00,
2013-02-22 11:15:00,40.4,30.7,29.99,NE,42,0.0,9.0,68,0.00,,---,0.00,VWS V14.01,2013-02-22 19:15:00,
2013-02-22 11:19:00,38.3,30.1,30.03,NE,46,5.0,7.0,72,0.00,,---,0.00,VWS V14.01,2013-02-22 19:19:00,
2013-02-22 11:24:00,38.3,30.1,30.03,ENE,57,4.0,7.0,72,0.00,,---,0.00,VWS V14.01,2013-02-22 19:24:00,
2013-02-22 11:28:00,38.4,30.2,30.02,NE,48,6.0,8.0,72,0.00,,---,0.00,VWS V14.01,2013-02-22 19:28:00,
2013-02-22 11:30:00,42.9,31.6,29.98,ESE,105,7.0,9.0,64,0.00,,---,0.00,VWS V14.01,2013-02-22 19:30:00,
2013-02-22 11:33:00,38.7,30.1,30.01,NE,46,3.0,7.0,71,0.00,,---,0.00,VWS V14.01,2013-02-22 19:33:00,
2013-02-22 11:38:00,38.9,30.3,30.01,NE,51,5.0,10.0,71,0.00,,---,0.00,VWS V14.01,2013-02-22 19:38:00,
2013-02-22 11:43:00,39.0,30.1,30.00,NE,42,8.0,11.0,70,0.00,,---,0.00,VWS V14.01,2013-02-22 19:43:00,
2013-02-22 11:45:00,43.7,31.5,29.96,East,84,5.0,10.0,62,0.00,,---,0.00,VWS V14.01,2013-02-22 19:45:00,
2013-02-22 11:48:00,39.2,30.2,30.00,NE,52,6.0,10.0,70,0.00,,---,0.00,VWS V14.01,2013-02-22 19:48:00,
2013-02-22 11:53:00,39.4,30.1,30.01,NE,45,5.0,10.0,69,0.00,,---,0.00,VWS V14.01,2013-02-22 19:53:00,
2013-02-22 11:58:00,39.3,30.7,30.00,NE,37,7.0,10.0,71,0.00,,---,0.00,VWS V14.01,2013-02-22 19:58:00,
2013-02-22 12:00:00,44.4,31.8,29.95,ESE,118,8.0,11.0,61,0.00,,---,0.00,VWS V14.01,2013-02-22 20:00:00,
2013-02-22 12:03:00,39.1,30.5,29.99,NE,40,5.0,9.0,71,0.00,,---,0.00,VWS V14.01,2013-02-22 20:03:00,
2013-02-22 12:08:00,39.6,31.0,29.99,NE,39,4.0,9.0,71,0.00,,---,0.00,VWS V14.01,2013-02-22 20:08:00,
2013-02-22 12:13:00,40.3,30.6,29.99,NE,42,0.0,9.0,68,0.00,,---,0.00,VWS V14.01,2013-02-22 20:13:00,
2013-02-22 12:15:00,45.3,31.8,29.94,SSW,197,4.0,17.0,59,0.00,,---,0.00,VWS V14.01,2013-02-22 20:15:00,
2013-02-22 12:18:00,40.8,31.1,29.98,NE,43,0.0,0.0,68,0.00,,---,0.00,VWS V14.01,2013-02-22 20:18:00,
2013-02-22 12:23:00,41.6,31.1,29.98,SE,136,1.0,7.0,66,0.00,,---,0.00,VWS V14.01,2013-02-22 20:23:00,
2013-02-22 12:28:00,42.5,30.8,29.98,SE,140,7.0,9.0,63,0.00,,---,0.00,VWS V14.01,2013-02-22 20:28:00,
2013-02-22 12:30:00,45.8,32.3,29.93,SSW,202,15.0,22.0,59,0.00,,---,0.00,VWS V14.01,2013-02-22 20:30:00,
2013-02-22 12:33:00,43.2,31.5,29.97,ESE,111,0.0,9.0,63,0.00,,---,0.00,VWS V14.01,2013-02-22 20:33:00,
2013-02-22 12:38:00,43.4,31.7,29.97,East,80,7.0,9.0,63,0.00,,---,0.00,VWS V14.01,2013-02-22 20:38:00,
2013-02-22 12:43:00,43.7,31.5,29.96,ENE,77,5.0,9.0,62,0.00,,---,0.00,VWS V14.01,2013-02-22 20:43:00,
2013-02-22 12:45:00,46.0,32.5,29.92,SSE,165,17.0,23.0,59,0.00,,---,0.00,VWS V14.01,2013-02-22 20:45:00,
2013-02-22 12:48:00,43.9,31.3,29.96,East,80,3.0,10.0,61,0.00,,---,0.00,VWS V14.01,2013-02-22 20:48:00,
2013-02-22 12:53:00,44.1,32.3,29.95,ENE,78,8.0,10.0,63,0.00,,---,0.00,VWS V14.01,2013-02-22 20:53:00,
2013-02-22 12:58:00,44.4,31.8,29.95,ESE,120,0.0,11.0,61,0.00,,---,0.00,VWS V14.01,2013-02-22 20:58:00,
2013-02-22 13:00:00,46.3,31.9,29.91,South,172,15.0,21.0,57,0.00,,---,0.00,VWS V14.01,2013-02-22 21:00:00,
2013-02-22 13:03:00,44.6,32.4,29.95,South,169,7.0,9.0,62,0.00,,---,0.00,VWS V14.01,2013-02-22 21:03:00,
2013-02-22 13:08:00,44.9,32.3,29.94,SSE,149,2.0,9.0,61,0.00,,---,0.00,VWS V14.01,2013-02-22 21:08:00,
2013-02-22 13:13:00,45.2,32.6,29.94,South,180,9.0,17.0,61,0.00,,---,0.00,VWS V14.01,2013-02-22 21:13:00,
2013-02-22 13:15:00,45.1,32.1,29.91,SSE,165,19.0,27.0,60,0.00,,---,0.00,VWS V14.01,2013-02-22 21:15:00,
2013-02-22 13:18:00,45.5,32.4,29.93,South,171,10.0,17.0,60,0.00,,---,0.00,VWS V14.01,2013-02-22 21:18:00,
2013-02-22 13:23:00,45.7,32.2,29.93,South,171,5.0,18.0,59,0.00,,---,0.00,VWS V14.01,2013-02-22 21:23:00,
2013-02-22 13:28:00,45.8,32.3,29.93,South,171,19.0,22.0,59,0.00,,---,0.00,VWS V14.01,2013-02-22 21:28:00,
2013-02-22 13:30:00,44.5,31.9,29.91,SSE,165,20.0,25.0,61,0.00,,---,0.00,VWS V14.01,2013-02-22 21:30:00,
2013-02-22 13:33:00,45.9,32.4,29.93,SSE,160,14.0,20.0,59,0.00,,---,0.00,VWS V14.01,2013-02-22 21:33:00,
2013-02-22 13:38:00,46.0,32.1,29.93,South,180,13.0,23.0,58,0.00,,---,0.00,VWS V14.01,2013-02-22 21:38:00,
2013-02-22 13:43:00,46.0,32.5,29.92,SSE,165,7.0,23.0,59,0.00,,---,0.00,VWS V14.01,2013-02-22 21:43:00,
2013-02-22 13:45:00,43.1,32.5,29.91,South,171,14.0,25.0,66,0.00,,---,0.00,VWS V14.01,2013-02-22 21:45:00,
2013-02-22 13:48:00,46.1,32.2,29.92,SE,135,17.0,21.0,58,0.00,,---,0.00,VWS V14.01,2013-02-22 21:48:00,
2013-02-22 13:53:00,46.3,32.3,29.91,SE,136,4.0,21.0,58,0.00,,---,0.00,VWS V14.01,2013-02-22 21:53:00,
2013-02-22 13:58:00,46.4,32.0,29.91,SSE,155,16.0,21.0,57,0.00,,---,0.00,VWS V14.01,2013-02-22 21:58:00,
2013-02-22 14:00:00,42.4,33.0,29.91,SSE,154,21.0,25.0,69,0.00,,---,0.00,VWS V14.01,2013-02-22 22:00:00,
2013-02-22 14:03:00,46.2,31.8,29.91,SSE,165,18.0,23.0,57,0.00,,---,0.00,VWS V14.01,2013-02-22 22:03:00,
2013-02-22 14:08:00,45.7,31.8,29.91,SSE,153,13.0,27.0,58,0.00,,---,0.00,VWS V14.01,2013-02-22 22:08:00,
2013-02-22 14:13:00,45.2,32.2,29.91,SSE,168,18.0,27.0,60,0.00,,---,0.00,VWS V14.01,2013-02-22 22:13:00,
2013-02-22 14:15:00,41.5,34.2,29.93,SSW,205,10.0,27.0,75,0.00,,---,0.00,VWS V14.01,2013-02-22 22:15:00,
2013-02-22 14:18:00,45.0,32.4,29.91,SSE,161,19.0,25.0,61,0.00,,---,0.00,VWS V14.01,2013-02-22 22:18:00,
2013-02-22 14:23:00,44.8,32.2,29.91,SE,142,15.0,25.0,61,0.00,,---,0.00,VWS V14.01,2013-02-22 22:23:00,
2013-02-22 14:28:00,44.6,32.4,29.91,South,175,15.0,25.0,62,0.00,,---,0.00,VWS V14.01,2013-02-22 22:28:00,
2013-02-22 14:30:00,40.8,34.5,29.95,South,182,0.0,15.0,78,0.00,,---,0.00,VWS V14.01,2013-02-22 22:30:00,
2013-02-22 14:33:00,44.4,31.8,29.91,SSE,153,14.0,24.0,61,0.00,,---,0.00,VWS V14.01,2013-02-22 22:33:00,
2013-02-22 14:38:00,44.0,31.8,29.92,SSE,167,16.0,25.0,62,0.00,,---,0.00,VWS V14.01,2013-02-22 22:38:00,
2013-02-22 14:43:00,43.4,32.4,29.91,SSE,155,15.0,25.0,65,0.00,,---,0.00,VWS V14.01,2013-02-22 22:43:00,
2013-02-22 14:45:00,40.5,34.8,29.93,SE,128,9.0,14.0,80,0.00,,---,0.00,VWS V14.01,2013-02-22 22:45:00,
2013-02-22 14:48:00,43.0,32.4,29.91,South,178,14.0,21.0,66,0.00,,---,0.00,VWS V14.01,2013-02-22 22:48:00,
2013-02-22 14:53:00,42.9,32.7,29.91,SSE,161,12.0,25.0,67,0.00,,---,0.00,VWS V14.01,2013-02-22 22:53:00,
2013-02-22 14:58:00,42.7,32.9,29.91,South,186,15.0,25.0,68,0.00,,---,0.00,VWS V14.01,2013-02-22 22:58:00,
2013-02-22 15:00:00,40.5,34.8,29.92,SE,138,8.0,18.0,80,0.00,,---,0.00,VWS V14.01,2013-02-22 23:00:00,
2013-02-22 15:03:00,42.2,33.1,29.92,SSE,163,20.0,27.0,70,0.00,,---,0.00,VWS V14.01,2013-02-22 23:03:00,
2013-02-22 15:08:00,41.9,33.2,29.92,South,184,4.0,27.0,71,0.00,,---,0.00,VWS V14.01,2013-02-22 23:08:00,
2013-02-22 15:13:00,41.6,33.6,29.92,South,178,10.0,27.0,73,0.00,,---,0.00,VWS V14.01,2013-02-22 23:13:00,
2013-02-22 15:15:00,40.7,34.7,29.89,ESE,113,9.0,19.0,79,0.00,,---,0.00,VWS V14.01,2013-02-22 23:15:00,
2013-02-22 15:18:00,41.3,34.0,29.94,SW,221,1.0,15.0,75,0.00,,---,0.00,VWS V14.01,2013-02-22 23:18:00,
2013-02-22 15:23:00,41.0,34.3,29.95,SSE,167,0.0,15.0,77,0.00,,---,0.00,VWS V14.01,2013-02-22 23:23:00,
2013-02-22 15:28:00,40.8,34.5,29.95,SSW,211,6.0,15.0,78,0.00,,---,0.00,VWS V14.01,2013-02-22 23:28:00,
2013-02-22 15:30:00,41.3,35.3,29.89,ESE,104,6.0,14.0,79,0.00,,---,0.00,VWS V14.01,2013-02-22 23:30:00,
2013-02-22 15:33:00,40.7,34.4,29.94,South,175,4.0,9.0,78,0.00,,---,0.00,VWS V14.01,2013-02-22 23:33:00,
2013-02-22 15:38:00,40.5,34.5,29.93,SSE,163,13.0,14.0,79,0.00,,---,0.00,VWS V14.01,2013-02-22 23:38:00,
2013-02-22 15:43:00,40.5,34.5,29.93,SE,132,6.0,14.0,79,0.00,,---,0.00,VWS V14.01,2013-02-22 23:43:00,
2013-02-22 15:45:00,41.1,35.1,29.89,SE,130,0.0,8.0,79,0.00,,---,0.00,VWS V14.01,2013-02-22 23:45:00,
2013-02-22 15:48:00,40.6,35.2,29.92,SE,128,7.0,13.0,81,0.00,,---,0.00,VWS V14.01,2013-02-22 23:48:00,
2013-02-22 15:53:00,40.6,34.9,29.92,SE,138,13.0,18.0,80,0.00,,---,0.00,VWS V14.01,2013-02-22 23:53:00,
2013-02-22 15:58:00,40.5,34.8,29.92,SE,134,11.0,18.0,80,0.00,,---,0.00,VWS V14.01,2013-02-22 23:58:00,
2013-02-22 16:00:00,41.1,34.8,29.89,East,95,0.0,9.0,78,0.00,,---,0.00,VWS V14.01,2013-02-23 00:00:00,
2013-02-22 16:03:00,40.5,34.8,29.91,SE,140,12.0,19.0,80,0.00,,---,0.00,VWS V14.01,2013-02-23 00:03:00,
2013-02-22 16:08:00,40.6,34.6,29.90,ESE,121,13.0,19.0,79,0.00,,---,0.00,VWS V14.01,2013-02-23 00:08:00,
2013-02-22 16:13:00,40.7,34.7,29.88,SE,125,7.0,19.0,79,0.00,,---,0.00,VWS V14.01,2013-02-23 00:13:00,
2013-02-22 16:15:00,41.0,34.7,29.88,East,94,0.0,0.0,78,0.00,,---,0.00,VWS V14.01,2013-02-23 00:15:00,
2013-02-22 16:18:00,40.9,34.9,29.89,ESE,110,8.0,11.0,79,0.00,,---,0.00,VWS V14.01,2013-02-23 00:18:00,
2013-02-22 16:23:00,41.1,34.8,29.89,SE,125,8.0,14.0,78,0.00,,---,0.00,VWS V14.01,2013-02-23 00:23:00,
2013-02-22 16:28:00,41.4,35.7,29.89,East,94,5.0,14.0,80,0.00,,---,0.00,VWS V14.01,2013-02-23 00:28:00,
2013-02-22 16:30:00,41.1,33.8,29.87,South,184,0.0,6.0,75,0.00,,---,0.00,VWS V14.01,2013-02-23 00:30:00,
2013-02-22 16:33:00,41.3,35.0,29.89,East,82,5.0,8.0,78,0.00,,---,0.00,VWS V14.01,2013-02-23 00:33:00,
2013-02-22 16:38:00,41.3,35.0,29.89,ESE,111,0.0,8.0,78,0.00,,---,0.00,VWS V14.01,2013-02-23 00:38:00,
2013-02-22 16:43:00,41.1,35.1,29.89,ESE,117,0.0,8.0,79,0.00,,---,0.00,VWS V14.01,2013-02-23 00:43:00,
2013-02-22 16:45:00,41.3,33.7,29.87,SE,137,6.0,7.0,74,0.00,,---,0.00,VWS V14.01,2013-02-23 00:45:00,
2013-02-22 16:48:00,41.1,35.1,29.89,ESE,118,0.0,0.0,79,0.00,,---,0.00,VWS V14.01,2013-02-23 00:48:00,
2013-02-22 16:53:00,41.0,35.0,29.89,SSE,150,9.0,9.0,79,0.00,,---,0.00,VWS V14.01,2013-02-23 00:53:00,
2013-02-22 16:58:00,41.1,34.5,29.88,SE,125,5.0,9.0,77,0.00,,---,0.00,VWS V14.01,2013-02-23 00:58:00,
2013-02-22 17:00:00,41.2,33.2,29.86,ESE,123,2.0,9.0,73,0.00,,---,0.00,VWS V14.01,2013-02-23 01:00:00,
2013-02-22 17:03:00,41.1,34.8,29.89,East,96,0.0,0.0,78,0.00,,---,0.00,VWS V14.01,2013-02-23 01:03:00,
2013-02-22 17:08:00,41.1,34.8,29.89,East,96,0.0,0.0,78,0.00,,---,0.00,VWS V14.01,2013-02-23 01:08:00,
2013-02-22 17:13:00,41.0,35.6,29.89,East,94,0.0,0.0,81,0.00,,---,0.00,VWS V14.01,2013-02-23 01:13:00,
2013-02-22 17:15:00,41.1,33.1,29.86,ESE,111,0.0,9.0,73,0.00,,---,0.00,VWS V14.01,2013-02-23 01:15:00,
2013-02-22 17:18:00,41.0,34.0,29.87,ENE,76,2.0,6.0,76,0.00,,---,0.00,VWS V14.01,2013-02-23 01:18:00,
2013-02-22 17:22:00,41.1,34.1,29.87,ESE,106,0.0,6.0,76,0.00,,---,0.00,VWS V14.01,2013-02-23 01:22:00,
2013-02-22 17:27:00,41.1,34.1,29.87,South,172,0.0,6.0,76,0.00,,---,0.00,VWS V14.01,2013-02-23 01:27:00,
2013-02-22 17:30:00,40.7,33.4,29.86,SSE,167,8.0,10.0,75,0.00,,---,0.00,VWS V14.01,2013-02-23 01:30:00,
2013-02-22 17:32:00,41.1,33.8,29.87,South,178,0.0,0.0,75,0.00,,---,0.00,VWS V14.01,2013-02-23 01:32:00,
2013-02-22 17:37:00,41.1,33.5,29.87,South,178,0.0,0.0,74,0.00,,---,0.00,VWS V14.01,2013-02-23 01:37:00,
2013-02-22 17:42:00,41.2,33.5,29.87,SE,137,0.0,7.0,74,0.00,,---,0.00,VWS V14.01,2013-02-23 01:42:00,
2013-02-22 17:45:00,40.4,33.5,29.86,SSE,167,9.0,12.0,76,0.00,,---,0.00,VWS V14.01,2013-02-23 01:45:00,
2013-02-22 17:47:00,41.3,33.7,29.86,SE,126,0.0,7.0,74,0.00,,---,0.00,VWS V14.01,2013-02-23 01:47:00,
2013-02-22 17:52:00,41.1,33.5,29.86,SE,134,0.0,7.0,74,0.00,,---,0.00,VWS V14.01,2013-02-23 01:52:00,
2013-02-22 17:57:00,41.1,33.1,29.87,SSE,168,2.0,9.0,73,0.00,,---,0.00,VWS V14.01,2013-02-23 01:57:00,
2013-02-22 18:00:00,40.8,33.2,29.85,SSE,163,12.0,16.0,74,0.00,,---,0.00,VWS V14.01,2013-02-23 02:00:00,
2013-02-22 18:02:00,41.2,33.2,29.86,SE,134,7.0,7.0,73,0.00,,---,0.00,VWS V14.01,2013-02-23 02:02:00,
2013-02-22 18:07:00,41.1,33.1,29.86,SSE,152,4.0,9.0,73,0.00,,---,0.00,VWS V14.01,2013-02-23 02:07:00,
2013-02-22 18:12:00,41.1,33.1,29.86,SSE,147,0.0,9.0,73,0.00,,---,0.00,VWS V14.01,2013-02-23 02:12:00,
2013-02-22 18:15:00,40.9,32.9,29.85,South,182,15.0,19.0,73,0.00,,---,0.00,VWS V14.01,2013-02-23 02:15:00,
2013-02-22 18:17:00,41.1,33.1,29.86,South,169,0.0,6.0,73,0.00,,---,0.00,VWS V14.01,2013-02-23 02:17:00,
2013-02-22 18:22:00,41.1,33.1,29.86,South,171,0.0,6.0,73,0.00,,---,0.00,VWS V14.01,2013-02-23 02:22:00,
2013-02-22 18:27:00,41.0,33.4,29.86,South,180,0.0,7.0,74,0.00,,---,0.00,VWS V14.01,2013-02-23 02:27:00,
2013-02-22 18:30:00,40.6,33.0,29.85,South,181,10.0,21.0,74,0.00,,---,0.00,VWS V14.01,2013-02-23 02:30:00,
2013-02-22 18:32:00,40.6,33.6,29.86,SSE,147,0.0,8.0,76,0.00,,---,0.00,VWS V14.01,2013-02-23 02:32:00,
2013-02-22 18:37:00,40.5,33.5,29.86,South,175,7.0,11.0,76,0.00,,---,0.00,VWS V14.01,2013-02-23 02:37:00,
2013-02-22 18:42:00,40.4,33.5,29.86,SE,146,1.0,11.0,76,0.00,,---,0.00,VWS V14.01,2013-02-23 02:42:00,
2013-02-22 18:45:00,39.9,33.3,29.86,SSW,209,6.0,20.0,77,0.00,,---,0.00,VWS V14.01,2013-02-23 02:45:00,
2013-02-22 18:47:00,40.5,33.2,29.86,SSE,147,5.0,12.0,75,0.00,,---,0.00,VWS V14.01,2013-02-23 02:47:00,
2013-02-22 18:52:00,40.6,33.3,29.86,SE,144,6.0,15.0,75,0.00,,---,0.00,VWS V14.01,2013-02-23 02:52:00,
2013-02-22 18:57:00,40.8,32.8,29.86,SSE,167,12.0,16.0,73,0.00,,---,0.00,VWS V14.01,2013-02-23 02:57:00,
2013-02-22 19:00:00,38.1,32.2,29.87,SW,224,27.0,29.0,79,0.00,,---,0.00,VWS V14.01,2013-02-23 03:00:00,
2013-02-22 19:02:00,40.9,33.3,29.86,South,169,15.0,17.0,74,0.00,,---,0.00,VWS V14.01,2013-02-23 03:02:00,
2013-02-22 19:07:00,40.7,33.1,29.86,SSE,147,7.0,19.0,74,0.00,,---,0.00,VWS V14.01,2013-02-23 03:07:00,
2013-02-22 19:12:00,40.8,33.2,29.85,SSE,157,12.0,19.0,74,0.00,,---,0.00,VWS V14.01,2013-02-23 03:12:00,
2013-02-22 19:15:00,36.2,31.8,29.88,SW,223,21.0,28.0,84,0.00,,---,0.00,VWS V14.01,2013-02-23 03:15:00,
2013-02-22 19:17:00,40.9,33.3,29.85,SSE,160,12.0,19.0,74,0.00,,---,0.00,VWS V14.01,2013-02-23 03:17:00,
2013-02-22 19:22:00,40.8,33.2,29.85,SSE,166,11.0,20.0,74,0.00,,---,0.00,VWS V14.01,2013-02-23 03:22:00,
2013-02-22 19:27:00,40.7,33.1,29.85,SSE,165,14.0,20.0,74,0.00,,---,0.00,VWS V14.01,2013-02-23 03:27:00,
2013-02-22 19:30:00,35.9,30.3,29.86,SSW,211,3.0,21.0,80,0.00,,---,0.00,VWS V14.01,2013-02-23 03:30:00,
2013-02-22 19:32:00,40.5,32.9,29.85,South,173,14.0,20.0,74,0.00,,---,0.00,VWS V14.01,2013-02-23 03:32:00,
2013-02-22 19:37:00,40.3,33.0,29.85,South,182,7.0,20.0,75,0.00,,---,0.00,VWS V14.01,2013-02-23 03:37:00,
2013-02-22 19:42:00,40.1,33.2,29.85,South,179,5.0,20.0,76,0.00,,---,0.00,VWS V14.01,2013-02-23 03:42:00,
2013-02-22 19:45:00,35.6,29.4,29.88,South,186,9.0,18.0,78,0.00,,---,0.00,VWS V14.01,2013-02-23 03:45:00,
2013-02-22 19:47:00,39.8,33.2,29.86,SW,227,9.0,13.0,77,0.00,,---,0.00,VWS V14.01,2013-02-23 03:47:00,
2013-02-22 19:52:00,39.6,33.3,29.87,SW,232,8.0,13.0,78,0.00,,---,0.00,VWS V14.01,2013-02-23 03:52:00,
2013-02-22 19:57:00,39.0,32.1,29.87,SW,229,22.0,28.0,76,0.00,,---,0.00,VWS V14.01,2013-02-23 03:57:00,
2013-02-22 20:00:00,35.0,29.5,29.87,South,172,6.0,14.0,80,0.00,,---,0.00,VWS V14.01,2013-02-23 04:00:00,
2013-02-22 20:02:00,37.7,32.1,29.87,SW,215,25.0,27.0,80,0.00,,---,0.00,VWS V14.01,2013-02-23 04:02:00,
2013-02-22 20:07:00,37.1,31.8,29.88,SSW,212,27.0,28.0,81,0.00,,---,0.00,VWS V14.01,2013-02-23 04:07:00,
2013-02-22 20:12:00,36.5,31.8,29.88,SW,225,27.0,28.0,83,0.00,,---,0.00,VWS V14.01,2013-02-23 04:12:00,
2013-02-22 20:15:00,34.7,29.2,29.89,SSW,201,2.0,11.0,80,0.00,,---,0.00,VWS V14.01,2013-02-23 04:15:00,
2013-02-22 20:17:00,36.0,31.9,29.87,SSW,204,7.0,21.0,85,0.00,,---,0.00,VWS V14.01,2013-02-23 04:17:00,
2013-02-22 20:22:00,35.7,31.9,29.87,SSW,195,1.0,21.0,86,0.00,,---,0.00,VWS V14.01,2013-02-23 04:22:00,
2013-02-22 20:27:00,35.9,31.2,29.86,SW,229,3.0,21.0,83,0.00,,---,0.00,VWS V14.01,2013-02-23 04:27:00,
2013-02-22 20:30:00,35.6,28.5,29.91,SW,225,13.0,23.0,75,0.00,,---,0.00,VWS V14.01,2013-02-23 04:30:00,
2013-02-22 20:32:00,35.9,30.3,29.87,South,188,5.0,13.0,80,0.00,,---,0.00,VWS V14.01,2013-02-23 04:32:00,
2013-02-22 20:37:00,35.9,29.7,29.87,SSW,203,3.0,16.0,78,0.00,,---,0.00,VWS V14.01,2013-02-23 04:37:00,
2013-02-22 20:42:00,35.6,29.7,29.87,SSE,165,14.0,16.0,79,0.00,,---,0.00,VWS V14.01,2013-02-23 04:42:00,
2013-02-22 20:45:00,32.6,29.2,29.93,WSW,238,12.0,29.0,87,0.00,,---,0.00,VWS V14.01,2013-02-23 04:45:00,
2013-02-22 20:47:00,35.5,29.3,29.87,South,179,9.0,14.0,78,0.00,,---,0.00,VWS V14.01,2013-02-23 04:47:00,
2013-02-22 20:52:00,35.4,29.2,29.87,South,178,0.0,14.0,78,0.00,,---,0.00,VWS V14.01,2013-02-23 04:52:00,
2013-02-22 20:57:00,35.2,29.4,29.87,South,172,0.0,14.0,79,0.00,,---,0.00,VWS V14.01,2013-02-23 04:57:00,
2013-02-22 21:00:00,35.0,29.2,29.87,SSE,163,5.0,14.0,79,0.00,,---,0.00,VWS V14.01,2013-02-23 05:00:00,
2013-02-22 21:05:00,34.7,29.2,29.88,SSE,149,0.0,10.0,80,0.00,,---,0.00,VWS V14.01,2013-02-23 05:05:00,
2013-02-22 21:10:00,34.5,29.3,29.88,South,186,1.0,10.0,81,0.00,,---,0.00,VWS V14.01,2013-02-23 05:10:00,
2013-02-22 21:15:00,34.6,29.1,29.89,SSW,208,0.0,11.0,80,0.00,,---,0.00,VWS V14.01,2013-02-23 05:15:00,
2013-02-22 21:20:00,34.9,28.4,29.90,SSW,201,5.0,14.0,77,0.00,,---,0.00,VWS V14.01,2013-02-23 05:20:00,
2013-02-22 21:25:00,35.3,28.2,29.91,SSW,202,14.0,19.0,75,0.00,,---,0.00,VWS V14.01,2013-02-23 05:25:00,
2013-02-22 21:30:00,35.6,28.5,29.91,SW,226,12.0,23.0,75,0.00,,---,0.00,VWS V14.01,2013-02-23 05:30:00,
2013-02-22 21:35:00,35.3,28.2,29.92,SW,232,23.0,25.0,75,0.00,,---,0.00,VWS V14.01,2013-02-23 05:35:00,
2013-02-22 21:40:00,34.4,29.5,29.92,WSW,253,19.0,29.0,82,0.00,,---,0.00,VWS V14.01,2013-02-23 05:40:00,
2013-02-22 21:45:00,32.6,29.2,29.93,WSW,246,16.0,29.0,87,0.00,,---,0.00,VWS V14.01,2013-02-23 05:45:00,
2013-02-22 21:50:00,32.1,29.5,29.93,SW,214,3.0,18.0,90,0.00,,---,0.00,VWS V14.01,2013-02-23 05:50:00,
2013-02-22 21:55:00,31.9,29.3,29.94,South,191,0.0,18.0,90,0.00,,---,0.00,VWS V14.01,2013-02-23 05:55:00,
2013-02-22 22:00:00,31.8,29.5,29.94,SW,215,13.0,18.0,91,0.00,,---,0.00,VWS V14.01,2013-02-23 06:00:00,
2013-02-22 22:05:00,32.1,29.8,29.94,SW,234,7.0,18.0,91,0.00,,---,0.00,VWS V14.01,2013-02-23 06:05:00,
2013-02-22 22:10:00,32.1,29.5,29.95,SW,218,5.0,18.0,90,0.00,,---,0.00,VWS V14.01,2013-02-23 06:10:00,
2013-02-22 22:15:00,32.1,29.5,29.95,SW,221,5.0,18.0,90,0.00,,---,0.00,VWS V14.01,2013-02-23 06:15:00,
2013-02-22 22:20:00,31.9,29.3,29.96,SW,220,5.0,10.0,90,0.00,,---,0.00,VWS V14.01,2013-02-23 06:20:00,
2013-02-22 22:25:00,32.0,29.1,29.96,SW,234,4.0,11.0,89,0.00,,---,0.00,VWS V14.01,2013-02-23 06:25:00,
2013-02-22 22:30:00,31.9,28.8,29.96,SSW,206,2.0,11.0,88,0.00,,---,0.00,VWS V14.01,2013-02-23 06:30:00,
2013-02-22 22:35:00,31.8,28.4,29.96,SW,227,6.0,10.0,87,0.00,,---,0.00,VWS V14.01,2013-02-23 06:35:00,
2013-02-22 22:40:00,31.7,28.3,29.96,South,186,3.0,10.0,87,0.00,,---,0.00,VWS V14.01,2013-02-23 06:40:00,
2013-02-22 22:45:00,31.5,28.4,29.96,SSW,207,0.0,10.0,88,0.00,,---,0.00,VWS V14.01,2013-02-23 06:45:00,
2013-02-22 22:50:00,31.4,28.3,29.96,SSW,204,0.0,7.0,88,0.00,,---,0.00,VWS V14.01,2013-02-23 06:50:00,
2013-02-22 22:55:00,31.2,28.1,29.97,South,184,0.0,7.0,88,0.00,,---,0.00,VWS V14.01,2013-02-23 06:55:00,
2013-02-22 23:00:00,31.0,27.9,29.97,SSW,192,0.0,7.0,88,0.00,,---,0.00,VWS V14.01,2013-02-23 07:00:00,
2013-02-22 23:05:00,30.7,27.6,29.98,South,182,0.0,2.0,88,0.00,,---,0.00,VWS V14.01,2013-02-23 07:05:00,
2013-02-22 23:10:00,30.5,27.4,29.99,South,182,0.0,2.0,88,0.00,,---,0.00,VWS V14.01,2013-02-23 07:10:00,
2013-02-22 23:14:00,30.4,27.3,29.99,South,182,0.0,2.0,88,0.00,,---,0.00,VWS V14.01,2013-02-23 07:14:00,
2013-02-22 23:15:00,29.2,23.5,29.99,SW,225,5.0,7.0,79,0.00,,---,0.00,VWS V14.01,2013-02-23 07:15:00,
2013-02-22 23:19:00,30.5,27.6,29.99,South,182,0.0,0.0,89,0.00,,---,0.00,VWS V14.01,2013-02-23 07:19:00,
2013-02-22 23:24:00,30.5,27.6,29.99,South,182,0.0,0.0,89,0.00,,---,0.00,VWS V14.01,2013-02-23 07:24:00,
2013-02-22 23:29:00,30.4,27.3,29.99,South,182,0.0,1.0,88,0.00,,---,0.00,VWS V14.01,2013-02-23 07:29:00,
2013-02-22 23:30:00,29.5,24.1,29.98,SSW,213,7.0,9.0,80,0.00,,---,0.00,VWS V14.01,2013-02-23 07:30:00,
2013-02-22 23:34:00,30.4,27.3,29.99,South,182,0.0,0.0,88,0.00,,---,0.00,VWS V14.01,2013-02-23 07:34:00,
2013-02-22 23:39:00,30.4,26.7,29.99,SSW,196,0.0,4.0,86,0.00,,---,0.00,VWS V14.01,2013-02-23 07:39:00,
2013-02-22 23:44:00,30.5,26.2,29.99,South,171,8.0,9.0,84,0.00,,---,0.00,VWS V14.01,2013-02-23 07:44:00,
2013-02-22 23:45:00,29.6,24.2,29.98,SSW,206,6.0,12.0,80,0.00,,---,0.00,VWS V14.01,2013-02-23 07:45:00,
2013-02-22 23:49:00,30.1,25.3,29.99,South,171,1.0,8.0,82,0.00,,---,0.00,VWS V14.01,2013-02-23 07:49:00,
2013-02-22 23:54:00,29.9,24.8,29.99,South,175,0.0,8.0,81,0.00,,---,0.00,VWS V14.01,2013-02-23 07:54:00,
2013-02-22 23:59:00,29.9,24.5,29.99,South,169,4.0,8.0,80,0.00,,---,0.00,VWS V14.01,2013-02-23 07:59:00,